createdAt,value
2023-03-14T00:02:07.057Z,59.95
2023-03-14T00:05:32.731Z,59.04
2023-03-14T00:08:58.514Z,61.81
2023-03-14T00:12:24.477Z,62.69
2023-03-14T00:15:50.574Z,60.99
2023-03-14T00:19:18.496Z,59.37
2023-03-14T00:22:44.268Z,60.68
2023-03-14T00:26:09.561Z,63.28
2023-03-14T00:29:35.689Z,62.04
2023-03-14T00:33:03.223Z,61.00
2023-03-14T00:36:30.327Z,59.82
2023-03-14T00:39:56.787Z,59.83
2023-03-14T00:43:23.727Z,59.45
2023-03-14T00:46:49.469Z,61.53
2023-03-14T00:50:16.159Z,63.13
2023-03-14T00:53:42.310Z,61.55
2023-03-14T00:57:06.221Z,60.44
2023-03-14T01:00:32.034Z,59.97
2023-03-14T01:03:58.378Z,59.62
2023-03-14T01:07:25.622Z,63.00
2023-03-14T01:10:51.221Z,63.14
2023-03-14T01:14:34.494Z,61.56
2023-03-14T01:18:00.314Z,61.23
2023-03-14T01:21:28.941Z,60.41
2023-03-14T01:24:54.826Z,59.71
2023-03-14T01:28:21.123Z,58.81
2023-03-14T01:32:03.927Z,61.94
2023-03-14T01:35:29.639Z,64.40
2023-03-14T01:38:55.634Z,62.95
2023-03-14T01:42:40.444Z,61.91
2023-03-14T01:46:20.058Z,61.86
2023-03-14T01:49:47.771Z,60.88
2023-03-14T01:53:13.537Z,60.98
2023-03-14T01:56:40.453Z,61.49
2023-03-14T02:00:23.090Z,62.10
2023-03-14T02:03:52.322Z,62.78
2023-03-14T02:07:20.912Z,62.87
2023-03-14T02:10:47.717Z,62.79
2023-03-14T02:14:16.606Z,63.15
2023-03-14T02:17:54.418Z,62.39
2023-03-14T02:21:45.394Z,61.89
2023-03-14T02:25:15.344Z,61.35
2023-03-14T02:28:39.124Z,61.81
2023-03-14T02:32:05.286Z,61.59
2023-03-14T02:35:33.696Z,61.57
2023-03-14T02:39:24.793Z,61.88
2023-03-14T02:42:51.217Z,61.83
2023-03-14T02:46:34.459Z,62.16
2023-03-14T02:50:04.652Z,62.26
2023-03-14T02:53:32.567Z,61.75
2023-03-14T02:57:33.392Z,61.53
2023-03-14T03:04:43.418Z,61.88
2023-03-14T03:08:10.094Z,62.64
2023-03-14T03:11:36.253Z,62.75
2023-03-14T03:15:02.838Z,62.12
2023-03-14T03:18:28.750Z,61.95
2023-03-14T03:21:54.803Z,61.88
2023-03-14T03:25:20.728Z,61.67
2023-03-14T03:28:46.551Z,61.86
2023-03-14T03:32:12.589Z,61.92
2023-03-14T03:35:44.329Z,62.77
2023-03-14T03:39:10.064Z,62.56
2023-03-14T03:42:35.805Z,62.35
2023-03-14T03:46:04.534Z,62.19
2023-03-14T03:49:32.052Z,62.21
2023-03-14T03:52:57.695Z,62.15
2023-03-14T03:56:23.468Z,62.06
2023-03-14T03:59:49.121Z,62.27
2023-03-14T04:03:15.250Z,62.17
2023-03-14T04:06:42.961Z,62.06
2023-03-14T04:10:26.762Z,61.59
2023-03-14T04:13:58.354Z,61.60
2023-03-14T04:17:24.636Z,61.15
2023-03-14T04:20:52.506Z,61.11
2023-03-14T04:24:17.628Z,61.38
2023-03-14T04:27:42.125Z,61.71
2023-03-14T04:31:10.682Z,61.69
2023-03-14T04:34:36.489Z,62.10
2023-03-14T04:38:03.944Z,61.64
2023-03-14T04:41:30.495Z,61.49
2023-03-14T04:44:56.565Z,61.67
2023-03-14T04:48:24.471Z,61.54
2023-03-14T04:51:51.760Z,61.59
2023-03-14T04:55:16.047Z,61.38
2023-03-14T04:58:41.969Z,61.28
2023-03-14T05:02:09.012Z,60.75
2023-03-14T05:05:32.938Z,60.59
2023-03-14T05:09:02.498Z,60.57
2023-03-14T05:12:26.384Z,60.63
2023-03-14T05:15:51.698Z,60.84
2023-03-14T05:19:17.813Z,60.90
2023-03-14T05:22:55.559Z,61.28
2023-03-14T05:26:24.196Z,61.37
2023-03-14T05:29:52.792Z,61.76
2023-03-14T05:33:17.085Z,61.55
2023-03-14T05:36:42.874Z,61.43
2023-03-14T05:40:12.554Z,61.30
2023-03-14T05:43:38.573Z,61.30
2023-03-14T05:47:16.232Z,61.04
2023-03-14T05:50:44.875Z,60.85
2023-03-14T05:54:10.573Z,60.44
2023-03-14T05:57:38.951Z,60.30
2023-03-14T06:01:08.114Z,60.44
2023-03-14T06:04:36.425Z,60.66
2023-03-14T06:08:02.158Z,60.64
2023-03-14T06:11:28.131Z,61.19
2023-03-14T06:14:54.913Z,60.93
2023-03-14T06:18:20.566Z,60.72
2023-03-14T06:21:46.607Z,60.58
2023-03-14T06:25:12.379Z,60.59
2023-03-14T06:28:38.430Z,60.73
2023-03-14T06:32:05.586Z,60.40
2023-03-14T06:35:31.374Z,60.65
2023-03-14T06:38:57.414Z,60.92
2023-03-14T06:42:24.038Z,60.83
2023-03-14T06:45:50.066Z,60.37
2023-03-14T06:49:15.936Z,60.50
2023-03-14T06:52:34.276Z,60.16
2023-03-14T06:55:59.994Z,60.15
2023-03-14T06:59:25.823Z,60.05
2023-03-14T07:02:51.590Z,59.94
2023-03-14T07:06:26.616Z,59.84
2023-03-14T07:09:52.791Z,59.67
2023-03-14T07:13:19.853Z,61.60
2023-03-14T07:16:46.210Z,63.46
2023-03-14T07:20:12.866Z,61.87
2023-03-14T07:23:38.909Z,60.64
2023-03-14T07:27:04.787Z,60.24
2023-03-14T07:30:30.515Z,59.77
2023-03-14T07:33:57.282Z,59.54
2023-03-14T07:38:10.258Z,60.36
2023-03-14T07:41:09.999Z,64.03
2023-03-14T07:44:36.185Z,62.76
2023-03-14T07:48:03.135Z,61.01
2023-03-14T07:51:28.857Z,60.04
2023-03-14T07:54:54.511Z,59.51
2023-03-14T07:58:13.623Z,61.33
2023-03-14T08:01:39.288Z,63.34
2023-03-14T08:05:05.097Z,61.83
2023-03-14T08:08:30.867Z,60.68
2023-03-14T08:11:58.724Z,59.79
2023-03-14T08:15:24.793Z,61.89
2023-03-14T08:18:50.928Z,62.56
2023-03-14T08:22:19.363Z,60.58
2023-03-14T08:25:45.708Z,58.87
2023-03-14T08:29:11.473Z,60.46
2023-03-14T08:32:30.175Z,62.28
2023-03-14T08:35:57.424Z,62.53
2023-03-14T08:39:24.351Z,59.85
2023-03-14T08:42:50.050Z,58.77
2023-03-14T08:46:15.824Z,60.78
2023-03-14T08:49:41.881Z,62.58
2023-03-14T08:52:50.500Z,60.29
2023-03-14T08:55:58.769Z,58.99
2023-03-14T08:59:24.497Z,60.64
2023-03-14T09:02:30.140Z,62.37
2023-03-14T09:05:36.551Z,60.78
2023-03-14T09:08:42.033Z,58.63
2023-03-14T09:11:47.843Z,60.17
2023-03-14T09:14:53.644Z,61.57
2023-03-14T09:18:00.014Z,62.54
2023-03-14T09:21:06.492Z,60.30
2023-03-14T09:24:12.316Z,58.29
2023-03-14T09:27:18.013Z,60.00
2023-03-14T09:30:26.349Z,61.47
2023-03-14T09:33:42.233Z,62.58
2023-03-14T09:37:08.570Z,59.95
2023-03-14T09:40:15.738Z,57.68
2023-03-14T09:43:22.759Z,58.54
2023-03-14T09:46:28.357Z,59.96
2023-03-14T09:49:34.664Z,60.83
2023-03-14T09:52:42.645Z,61.37
2023-03-14T09:55:49.429Z,61.71
2023-03-14T09:59:07.826Z,61.87
2023-03-14T10:02:19.268Z,62.18
2023-03-14T10:05:34.247Z,60.98
2023-03-14T10:08:41.896Z,59.28
2023-03-14T10:11:50.697Z,59.37
2023-03-14T10:14:56.335Z,58.50
2023-03-14T10:18:02.785Z,59.12
2023-03-14T10:21:19.644Z,58.69
2023-03-14T10:24:31.516Z,59.10
2023-03-14T10:27:47.116Z,58.77
2023-03-14T10:30:55.599Z,58.46
2023-03-14T10:34:02.246Z,58.78
2023-03-14T10:37:23.527Z,58.28
2023-03-14T10:40:30.972Z,57.18
2023-03-14T10:43:38.567Z,57.57
2023-03-14T10:46:44.222Z,56.96
2023-03-14T10:50:24.553Z,56.34
2023-03-14T10:53:35.101Z,56.58
2023-03-14T10:56:40.611Z,56.36
2023-03-14T10:59:50.067Z,56.80
2023-03-14T11:03:06.787Z,57.54
2023-03-14T11:06:16.841Z,58.40
2023-03-14T11:09:31.808Z,59.48
2023-03-14T11:12:44.265Z,60.03
2023-03-14T11:15:56.129Z,60.65
2023-03-14T11:19:17.193Z,60.98
2023-03-14T11:22:34.305Z,61.05
2023-03-14T11:25:45.455Z,61.24
2023-03-14T11:28:52.173Z,61.77
2023-03-14T11:32:04.074Z,62.15
2023-03-14T11:35:17.820Z,62.43
2023-03-14T11:38:39.616Z,58.93
2023-03-14T11:41:46.477Z,57.90
2023-03-14T11:44:52.142Z,58.87
2023-03-14T11:48:06.596Z,59.95
2023-03-14T11:51:16.099Z,60.37
2023-03-14T11:54:27.387Z,60.64
2023-03-14T11:57:33.008Z,60.13
2023-03-14T12:00:40.919Z,59.26
2023-03-14T12:03:52.396Z,58.51
2023-03-14T12:06:58.952Z,58.30
2023-03-14T12:10:05.415Z,58.73
2023-03-14T12:13:11.929Z,58.28
2023-03-14T12:16:29.263Z,57.08
2023-03-14T12:19:41.872Z,52.63
2023-03-14T12:23:13.316Z,51.25
2023-03-14T12:26:23.338Z,51.80
2023-03-14T12:29:29.318Z,52.09
2023-03-14T12:32:38.253Z,50.99
2023-03-14T12:36:32.209Z,49.53
2023-03-14T12:39:37.142Z,50.09
2023-03-14T12:42:52.442Z,50.20
2023-03-14T12:46:10.828Z,49.39
2023-03-14T12:49:16.440Z,49.91
2023-03-14T12:52:34.073Z,50.40
2023-03-14T12:55:42.580Z,50.74
2023-03-14T12:59:02.833Z,51.12
2023-03-14T13:02:23.399Z,51.68
2023-03-14T13:05:29.173Z,51.77
2023-03-14T13:08:40.613Z,51.17
2023-03-14T13:11:46.492Z,52.12
2023-03-14T13:14:54.818Z,51.27
2023-03-14T13:18:11.315Z,50.89
2023-03-14T13:21:18.734Z,50.15
2023-03-14T13:24:44.626Z,50.44
2023-03-14T13:28:00.611Z,47.31
2023-03-14T13:31:07.437Z,48.05
2023-03-14T13:34:13.359Z,48.81
2023-03-14T13:37:21.433Z,49.03
2023-03-14T13:40:31.626Z,49.19
2023-03-14T13:43:38.483Z,50.13
2023-03-14T13:46:43.981Z,50.74
2023-03-14T13:49:50.980Z,50.57
2023-03-14T13:52:59.801Z,51.27
2023-03-14T13:56:05.916Z,51.69
2023-03-14T13:59:28.279Z,51.71
2023-03-14T14:02:41.591Z,52.40
2023-03-14T14:05:58.613Z,52.51
2023-03-14T14:09:06.819Z,52.82
2023-03-14T14:12:17.742Z,53.51
2023-03-14T14:15:24.555Z,54.27
2023-03-14T14:18:31.754Z,54.91
2023-03-14T14:21:40.192Z,55.19
2023-03-14T14:24:50.322Z,55.15
2023-03-14T14:28:18.016Z,55.28
2023-03-14T14:31:24.153Z,55.27
2023-03-14T14:34:29.935Z,55.33
2023-03-14T14:37:36.319Z,55.40
2023-03-14T14:40:47.506Z,55.59
2023-03-14T14:44:31.841Z,55.74
2023-03-14T14:47:34.747Z,55.76
2023-03-14T14:51:00.476Z,56.02
2023-03-14T14:54:11.385Z,56.24
2023-03-14T14:57:20.217Z,56.37
2023-03-14T15:00:27.818Z,56.74
2023-03-14T15:03:34.287Z,56.94
2023-03-14T15:06:44.285Z,56.85
2023-03-14T15:09:50.033Z,56.93
2023-03-14T15:13:01.642Z,57.25
2023-03-14T15:16:12.976Z,57.15
2023-03-14T15:19:24.811Z,57.43
2023-03-14T15:22:31.126Z,57.77
2023-03-14T15:25:54.658Z,58.09
2023-03-14T15:29:04.007Z,58.35
2023-03-14T15:32:11.874Z,59.02
2023-03-14T15:35:20.501Z,59.41
2023-03-14T15:38:27.236Z,58.48
2023-03-14T15:41:36.148Z,57.08
2023-03-14T15:44:44.505Z,56.30
2023-03-14T15:47:50.361Z,56.01
2023-03-14T15:50:56.097Z,56.38
2023-03-14T15:54:05.099Z,57.06
2023-03-14T15:57:12.079Z,57.82
2023-03-14T16:00:29.139Z,58.56
2023-03-14T16:03:45.238Z,59.20
2023-03-14T16:06:51.954Z,59.85
2023-03-14T16:09:57.764Z,60.40
2023-03-14T16:13:12.495Z,60.92
2023-03-14T16:16:18.329Z,60.96
2023-03-14T16:19:23.823Z,61.43
2023-03-14T16:22:30.515Z,61.63
2023-03-14T16:25:40.425Z,62.00
2023-03-14T16:28:46.732Z,62.21
2023-03-14T16:31:52.415Z,62.14
2023-03-14T16:34:58.224Z,59.27
2023-03-14T16:38:04.164Z,57.78
2023-03-14T16:41:12.495Z,58.82
2023-03-14T16:44:18.112Z,59.91
2023-03-14T16:47:23.560Z,60.57
2023-03-14T16:50:28.864Z,61.34
2023-03-14T16:53:37.576Z,62.02
2023-03-14T16:56:44.340Z,62.64
2023-03-14T16:59:52.659Z,61.25
2023-03-14T17:03:10.792Z,57.35
2023-03-14T17:06:18.983Z,58.35
2023-03-14T17:09:28.674Z,59.99
2023-03-14T17:12:36.946Z,61.60
2023-03-14T17:15:45.783Z,62.77
2023-03-14T17:18:51.597Z,60.56
2023-03-14T17:22:09.443Z,58.40
2023-03-14T17:25:22.860Z,59.32
2023-03-14T17:28:28.714Z,61.74
2023-03-14T17:31:41.564Z,62.66
2023-03-14T17:34:49.034Z,60.33
2023-03-14T17:37:55.707Z,58.80
2023-03-14T17:41:02.947Z,60.28
2023-03-14T17:44:12.774Z,61.99
2023-03-14T17:47:21.549Z,62.59
2023-03-14T17:50:29.728Z,60.25
2023-03-14T17:53:37.546Z,58.38
2023-03-14T17:56:52.873Z,60.11
2023-03-14T18:00:08.476Z,62.26
2023-03-14T18:03:14.718Z,62.64
2023-03-14T18:06:23.819Z,59.59
2023-03-14T18:09:49.459Z,58.91
2023-03-14T18:13:00.646Z,61.29
2023-03-14T18:16:08.374Z,63.31
2023-03-14T18:19:14.273Z,62.66
2023-03-14T18:22:21.661Z,59.62
2023-03-14T18:25:45.748Z,58.97
2023-03-14T18:28:51.383Z,61.40
2023-03-14T18:31:58.372Z,63.24
2023-03-14T18:35:04.206Z,62.01
2023-03-14T18:38:09.920Z,59.40
2023-03-14T18:41:16.155Z,59.03
2023-03-14T18:44:21.858Z,61.37
2023-03-14T18:47:27.995Z,63.39
2023-03-14T18:50:33.865Z,61.82
2023-03-14T18:53:39.886Z,59.78
2023-03-14T18:57:05.884Z,59.78
2023-03-14T19:00:16.278Z,62.11
2023-03-14T19:03:31.739Z,63.28
2023-03-14T19:06:37.170Z,61.15
2023-03-14T19:09:45.418Z,59.63
2023-03-14T19:12:59.932Z,57.98
2023-03-14T19:16:07.088Z,59.41
2023-03-14T19:19:32.859Z,63.68
2023-03-14T19:22:45.851Z,62.82
2023-03-14T19:26:02.963Z,62.25
2023-03-14T19:29:18.430Z,66.79
2023-03-14T19:32:45.354Z,70.48
2023-03-14T19:36:00.234Z,71.45
2023-03-14T19:39:17.930Z,72.20
2023-03-14T19:42:43.465Z,73.96
2023-03-14T19:45:49.216Z,75.06
2023-03-14T19:49:00.160Z,76.91
2023-03-14T19:52:14.694Z,77.34
2023-03-14T19:55:40.212Z,76.86
2023-03-14T19:59:10.389Z,76.95
2023-03-14T20:02:20.161Z,78.14
2023-03-14T20:05:34.718Z,79.14
2023-03-14T20:08:57.575Z,79.30
2023-03-14T20:12:24.177Z,80.64
2023-03-14T20:15:30.284Z,82.00
2023-03-14T20:18:59.105Z,80.68
2023-03-14T20:22:16.420Z,79.40
2023-03-14T20:25:45.327Z,79.59
2023-03-14T20:29:03.919Z,82.19
2023-03-14T20:32:16.052Z,82.77
2023-03-14T20:35:25.872Z,81.50
2023-03-14T20:38:51.995Z,82.46
2023-03-14T20:42:09.385Z,82.99
2023-03-14T20:45:36.024Z,82.14
2023-03-14T20:49:18.886Z,82.66
2023-03-14T20:52:28.299Z,82.71
2023-03-14T20:55:57.201Z,83.14
2023-03-14T21:00:03.318Z,83.19
2023-03-14T21:03:25.505Z,82.86
2023-03-14T21:07:01.362Z,83.24
2023-03-14T21:10:47.161Z,83.70
2023-03-14T21:14:13.748Z,84.51
2023-03-14T21:17:42.765Z,84.09
2023-03-14T21:21:11.227Z,84.63
2023-03-14T21:24:21.031Z,84.29
2023-03-14T21:27:39.052Z,84.34
2023-03-14T21:31:04.569Z,83.13
2023-03-14T21:34:18.001Z,83.76
2023-03-14T21:37:32.064Z,83.19
2023-03-14T21:40:50.101Z,82.92
2023-03-14T21:44:06.003Z,83.11
2023-03-14T21:47:17.106Z,82.97
2023-03-14T21:50:32.077Z,81.85
2023-03-14T21:53:48.138Z,81.05
2023-03-14T21:57:02.937Z,80.39
2023-03-14T22:00:17.033Z,80.19
2023-03-14T22:03:28.246Z,79.89
2023-03-14T22:06:38.842Z,80.82
2023-03-14T22:09:49.444Z,80.36
2023-03-14T22:12:58.074Z,81.37
2023-03-14T22:16:07.169Z,81.03
2023-03-14T22:19:15.633Z,80.57
2023-03-14T22:22:28.657Z,80.38
2023-03-14T22:25:54.124Z,81.50
2023-03-14T22:29:18.626Z,80.84
2023-03-14T22:32:33.928Z,79.74
2023-03-14T22:35:42.521Z,78.69
2023-03-14T22:38:48.066Z,79.11
2023-03-14T22:41:53.747Z,78.81
2023-03-14T22:44:59.243Z,79.23
2023-03-14T22:48:05.036Z,79.24
2023-03-14T22:51:24.492Z,78.77
2023-03-14T22:54:35.928Z,79.84
2023-03-14T22:57:46.636Z,79.09
2023-03-14T23:00:54.717Z,78.00
2023-03-14T23:04:02.179Z,77.39
2023-03-14T23:07:18.135Z,78.78
2023-03-14T23:10:44.409Z,77.41
2023-03-14T23:13:50.937Z,76.31
2023-03-14T23:17:16.912Z,76.16
2023-03-14T23:20:26.311Z,76.58
2023-03-14T23:46:26.358Z,74.14
2023-03-14T23:49:36.642Z,73.92
2023-03-14T23:52:53.130Z,74.40
2023-03-14T23:56:19.066Z,74.12
2023-03-14T23:59:30.039Z,73.06
